sensor_id;sensor_type;location;lat;lon;timestamp;P1;durP1;ratioP1;P2;durP2;ratioP2
80725;SDS011;70113;59.928;10.878;2024-01-30T00:00:52;5.13;;;0.85;;
80725;SDS011;70113;59.928;10.878;2024-01-30T00:03:37;4.35;;;1.63;;
80725;SDS011;70113;59.928;10.878;2024-01-30T00:06:04;8.07;;;1.77;;
80725;SDS011;70113;59.928;10.878;2024-01-30T00:08:29;5.88;;;0.90;;
80725;SDS011;70113;59.928;10.878;2024-01-30T00:10:55;4.38;;;1.08;;
80725;SDS011;70113;59.928;10.878;2024-01-30T00:13:21;6.30;;;1.00;;
80725;SDS011;70113;59.928;10.878;2024-01-30T00:15:46;5.63;;;1.35;;
80725;SDS011;70113;59.928;10.878;2024-01-30T00:18:12;4.20;;;1.30;;
80725;SDS011;70113;59.928;10.878;2024-01-30T00:20:38;7.15;;;0.73;;
80725;SDS011;70113;59.928;10.878;2024-01-30T00:23:03;6.50;;;0.90;;
80725;SDS011;70113;59.928;10.878;2024-01-30T00:25:30;4.05;;;0.93;;
80725;SDS011;70113;59.928;10.878;2024-01-30T00:27:56;3.05;;;0.77;;
80725;SDS011;70113;59.928;10.878;2024-01-30T00:30:22;2.72;;;0.57;;
80725;SDS011;70113;59.928;10.878;2024-01-30T00:35:29;4.05;;;0.60;;
80725;SDS011;70113;59.928;10.878;2024-01-30T00:37:55;5.90;;;1.02;;
80725;SDS011;70113;59.928;10.878;2024-01-30T00:40:20;4.28;;;0.85;;
80725;SDS011;70113;59.928;10.878;2024-01-30T00:42:46;5.05;;;0.80;;
80725;SDS011;70113;59.928;10.878;2024-01-30T00:45:15;3.28;;;0.90;;
80725;SDS011;70113;59.928;10.878;2024-01-30T00:47:41;4.22;;;0.60;;
80725;SDS011;70113;59.928;10.878;2024-01-30T00:50:06;5.18;;;0.77;;
80725;SDS011;70113;59.928;10.878;2024-01-30T00:52:32;8.38;;;1.00;;
80725;SDS011;70113;59.928;10.878;2024-01-30T00:54:58;5.28;;;0.60;;
80725;SDS011;70113;59.928;10.878;2024-01-30T01:52:28;4.78;;;1.13;;
80725;SDS011;70113;59.928;10.878;2024-01-30T01:54:54;5.00;;;0.80;;
80725;SDS011;70113;59.928;10.878;2024-01-30T01:57:20;3.70;;;0.80;;
80725;SDS011;70113;59.928;10.878;2024-01-30T01:59:46;4.38;;;1.10;;
80725;SDS011;70113;59.928;10.878;2024-01-30T02:02:11;6.97;;;1.38;;
80725;SDS011;70113;59.928;10.878;2024-01-30T02:04:38;7.05;;;1.10;;
80725;SDS011;70113;59.928;10.878;2024-01-30T02:07:03;4.93;;;0.88;;
80725;SDS011;70113;59.928;10.878;2024-01-30T02:09:29;2.35;;;0.60;;
80725;SDS011;70113;59.928;10.878;2024-01-30T02:11:55;4.22;;;0.75;;
80725;SDS011;70113;59.928;10.878;2024-01-30T02:14:20;6.20;;;1.15;;
80725;SDS011;70113;59.928;10.878;2024-01-30T02:16:46;3.85;;;0.70;;
80725;SDS011;70113;59.928;10.878;2024-01-30T02:19:12;6.72;;;1.73;;
80725;SDS011;70113;59.928;10.878;2024-01-30T02:21:37;4.68;;;0.80;;
80725;SDS011;70113;59.928;10.878;2024-01-30T02:24:03;3.97;;;1.02;;
80725;SDS011;70113;59.928;10.878;2024-01-30T02:26:29;7.80;;;1.25;;
80725;SDS011;70113;59.928;10.878;2024-01-30T02:28:55;5.03;;;0.70;;
80725;SDS011;70113;59.928;10.878;2024-01-30T02:31:20;4.80;;;1.30;;
80725;SDS011;70113;59.928;10.878;2024-01-30T02:33:46;5.10;;;0.98;;
80725;SDS011;70113;59.928;10.878;2024-01-30T02:36:12;4.32;;;0.52;;
80725;SDS011;70113;59.928;10.878;2024-01-30T02:38:37;4.57;;;0.73;;
80725;SDS011;70113;59.928;10.878;2024-01-30T02:41:03;4.00;;;0.63;;
80725;SDS011;70113;59.928;10.878;2024-01-30T02:43:29;3.53;;;0.80;;
80725;SDS011;70113;59.928;10.878;2024-01-30T02:45:54;3.80;;;0.57;;
80725;SDS011;70113;59.928;10.878;2024-01-30T02:48:20;4.53;;;0.85;;
80725;SDS011;70113;59.928;10.878;2024-01-30T02:50:45;4.68;;;1.13;;
80725;SDS011;70113;59.928;10.878;2024-01-30T02:53:12;4.80;;;0.60;;
80725;SDS011;70113;59.928;10.878;2024-01-30T02:55:37;4.82;;;1.45;;
80725;SDS011;70113;59.928;10.878;2024-01-30T02:58:03;2.60;;;0.80;;
80725;SDS011;70113;59.928;10.878;2024-01-30T03:00:29;5.32;;;1.08;;
80725;SDS011;70113;59.928;10.878;2024-01-30T03:02:55;3.72;;;0.93;;
80725;SDS011;70113;59.928;10.878;2024-01-30T03:05:20;3.35;;;0.90;;
80725;SDS011;70113;59.928;10.878;2024-01-30T03:07:46;8.73;;;1.20;;
80725;SDS011;70113;59.928;10.878;2024-01-30T03:10:11;4.68;;;0.88;;
80725;SDS011;70113;59.928;10.878;2024-01-30T03:12:37;5.97;;;1.58;;
80725;SDS011;70113;59.928;10.878;2024-01-30T03:15:03;5.00;;;1.02;;
80725;SDS011;70113;59.928;10.878;2024-01-30T03:17:28;5.25;;;0.90;;
80725;SDS011;70113;59.928;10.878;2024-01-30T03:19:54;4.10;;;0.80;;
80725;SDS011;70113;59.928;10.878;2024-01-30T03:22:20;4.47;;;0.90;;
80725;SDS011;70113;59.928;10.878;2024-01-30T03:24:46;4.75;;;0.85;;
80725;SDS011;70113;59.928;10.878;2024-01-30T03:27:11;4.38;;;0.80;;
80725;SDS011;70113;59.928;10.878;2024-01-30T03:29:37;5.35;;;1.05;;
80725;SDS011;70113;59.928;10.878;2024-01-30T03:32:03;6.75;;;1.20;;
80725;SDS011;70113;59.928;10.878;2024-01-30T03:34:29;4.30;;;0.95;;
80725;SDS011;70113;59.928;10.878;2024-01-30T03:36:55;5.55;;;1.08;;
80725;SDS011;70113;59.928;10.878;2024-01-30T03:39:20;4.45;;;1.67;;
80725;SDS011;70113;59.928;10.878;2024-01-30T03:41:46;4.57;;;1.00;;
80725;SDS011;70113;59.928;10.878;2024-01-30T03:44:12;8.82;;;1.80;;
80725;SDS011;70113;59.928;10.878;2024-01-30T03:46:37;4.90;;;0.90;;
80725;SDS011;70113;59.928;10.878;2024-01-30T03:49:03;3.28;;;0.95;;
80725;SDS011;70113;59.928;10.878;2024-01-30T03:51:29;3.20;;;0.70;;
80725;SDS011;70113;59.928;10.878;2024-01-30T03:53:54;5.68;;;1.05;;
80725;SDS011;70113;59.928;10.878;2024-01-30T03:56:20;9.23;;;1.20;;
80725;SDS011;70113;59.928;10.878;2024-01-30T03:58:46;7.20;;;0.90;;
80725;SDS011;70113;59.928;10.878;2024-01-30T04:01:14;6.75;;;0.95;;
80725;SDS011;70113;59.928;10.878;2024-01-30T04:03:40;5.22;;;0.90;;
80725;SDS011;70113;59.928;10.878;2024-01-30T04:06:06;7.15;;;1.23;;
80725;SDS011;70113;59.928;10.878;2024-01-30T04:08:31;7.30;;;1.17;;
80725;SDS011;70113;59.928;10.878;2024-01-30T04:10:58;3.75;;;0.80;;
80725;SDS011;70113;59.928;10.878;2024-01-30T04:13:23;3.88;;;1.10;;
80725;SDS011;70113;59.928;10.878;2024-01-30T04:15:49;6.72;;;1.08;;
80725;SDS011;70113;59.928;10.878;2024-01-30T04:18:15;7.47;;;1.30;;
80725;SDS011;70113;59.928;10.878;2024-01-30T04:20:41;6.20;;;1.17;;
80725;SDS011;70113;59.928;10.878;2024-01-30T04:23:06;4.38;;;1.00;;
80725;SDS011;70113;59.928;10.878;2024-01-30T04:25:32;5.63;;;0.85;;
80725;SDS011;70113;59.928;10.878;2024-01-30T04:27:57;4.25;;;0.95;;
80725;SDS011;70113;59.928;10.878;2024-01-30T04:30:23;3.53;;;0.95;;
80725;SDS011;70113;59.928;10.878;2024-01-30T04:32:49;9.07;;;1.10;;
80725;SDS011;70113;59.928;10.878;2024-01-30T04:35:15;4.57;;;1.05;;
80725;SDS011;70113;59.928;10.878;2024-01-30T04:37:40;6.30;;;1.20;;
80725;SDS011;70113;59.928;10.878;2024-01-30T04:40:06;5.68;;;1.25;;
80725;SDS011;70113;59.928;10.878;2024-01-30T04:42:32;6.57;;;1.48;;
80725;SDS011;70113;59.928;10.878;2024-01-30T04:44:57;5.50;;;0.90;;
80725;SDS011;70113;59.928;10.878;2024-01-30T04:47:23;7.03;;;1.20;;
80725;SDS011;70113;59.928;10.878;2024-01-30T06:21:15;5.20;;;1.92;;
80725;SDS011;70113;59.928;10.878;2024-01-30T06:23:42;6.97;;;1.70;;
80725;SDS011;70113;59.928;10.878;2024-01-30T06:26:07;5.93;;;1.75;;
80725;SDS011;70113;59.928;10.878;2024-01-30T06:28:33;7.18;;;2.10;;
80725;SDS011;70113;59.928;10.878;2024-01-30T06:31:00;5.90;;;1.60;;
80725;SDS011;70113;59.928;10.878;2024-01-30T06:33:26;8.27;;;1.92;;
80725;SDS011;70113;59.928;10.878;2024-01-30T06:35:52;5.07;;;1.33;;
80725;SDS011;70113;59.928;10.878;2024-01-30T06:38:17;5.00;;;1.60;;
80725;SDS011;70113;59.928;10.878;2024-01-30T06:40:43;5.68;;;1.63;;
80725;SDS011;70113;59.928;10.878;2024-01-30T06:43:08;5.25;;;1.30;;
80725;SDS011;70113;59.928;10.878;2024-01-30T06:45:35;9.30;;;2.17;;
80725;SDS011;70113;59.928;10.878;2024-01-30T06:48:00;5.63;;;1.42;;
80725;SDS011;70113;59.928;10.878;2024-01-30T06:50:26;7.35;;;1.58;;
80725;SDS011;70113;59.928;10.878;2024-01-30T06:52:52;5.45;;;1.95;;
80725;SDS011;70113;59.928;10.878;2024-01-30T06:55:18;5.55;;;1.40;;
80725;SDS011;70113;59.928;10.878;2024-01-30T06:57:43;3.85;;;1.15;;
80725;SDS011;70113;59.928;10.878;2024-01-30T07:00:10;4.45;;;1.27;;
80725;SDS011;70113;59.928;10.878;2024-01-30T07:02:35;6.38;;;1.60;;
80725;SDS011;70113;59.928;10.878;2024-01-30T07:05:02;4.25;;;1.08;;
80725;SDS011;70113;59.928;10.878;2024-01-30T07:07:28;6.40;;;1.40;;
80725;SDS011;70113;59.928;10.878;2024-01-30T07:09:54;9.48;;;3.13;;
80725;SDS011;70113;59.928;10.878;2024-01-30T07:12:24;6.90;;;2.00;;
80725;SDS011;70113;59.928;10.878;2024-01-30T07:14:51;8.70;;;1.40;;
80725;SDS011;70113;59.928;10.878;2024-01-30T07:17:17;7.28;;;1.80;;
80725;SDS011;70113;59.928;10.878;2024-01-30T07:19:42;3.55;;;1.35;;
80725;SDS011;70113;59.928;10.878;2024-01-30T07:22:08;8.50;;;1.80;;
80725;SDS011;70113;59.928;10.878;2024-01-30T07:24:34;9.20;;;1.85;;
80725;SDS011;70113;59.928;10.878;2024-01-30T07:27:00;4.57;;;1.42;;
80725;SDS011;70113;59.928;10.878;2024-01-30T07:29:25;6.35;;;1.27;;
80725;SDS011;70113;59.928;10.878;2024-01-30T07:31:51;3.53;;;1.17;;
80725;SDS011;70113;59.928;10.878;2024-01-30T07:34:17;5.30;;;1.70;;
80725;SDS011;70113;59.928;10.878;2024-01-30T07:36:43;6.18;;;1.60;;
80725;SDS011;70113;59.928;10.878;2024-01-30T07:39:08;5.90;;;1.40;;
80725;SDS011;70113;59.928;10.878;2024-01-30T07:41:35;7.88;;;1.40;;
80725;SDS011;70113;59.928;10.878;2024-01-30T07:44:01;4.40;;;1.40;;
80725;SDS011;70113;59.928;10.878;2024-01-30T07:46:26;5.97;;;1.65;;
80725;SDS011;70113;59.928;10.878;2024-01-30T07:48:52;6.57;;;1.40;;
80725;SDS011;70113;59.928;10.878;2024-01-30T07:51:17;5.60;;;1.35;;
80725;SDS011;70113;59.928;10.878;2024-01-30T07:53:43;7.97;;;1.60;;
80725;SDS011;70113;59.928;10.878;2024-01-30T07:56:10;8.43;;;1.95;;
80725;SDS011;70113;59.928;10.878;2024-01-30T07:58:36;5.38;;;1.63;;
80725;SDS011;70113;59.928;10.878;2024-01-30T08:01:02;5.65;;;1.90;;
80725;SDS011;70113;59.928;10.878;2024-01-30T08:03:28;6.07;;;1.50;;
80725;SDS011;70113;59.928;10.878;2024-01-30T08:05:54;7.13;;;1.95;;
80725;SDS011;70113;59.928;10.878;2024-01-30T08:08:19;6.03;;;1.80;;
80725;SDS011;70113;59.928;10.878;2024-01-30T08:10:45;5.78;;;1.85;;
80725;SDS011;70113;59.928;10.878;2024-01-30T08:13:11;6.78;;;2.30;;
80725;SDS011;70113;59.928;10.878;2024-01-30T08:15:36;6.05;;;2.08;;
80725;SDS011;70113;59.928;10.878;2024-01-30T08:18:02;7.85;;;2.10;;
80725;SDS011;70113;59.928;10.878;2024-01-30T09:57:04;9.27;;;1.83;;
80725;SDS011;70113;59.928;10.878;2024-01-30T09:59:30;8.35;;;1.75;;
80725;SDS011;70113;59.928;10.878;2024-01-30T10:01:55;6.68;;;1.88;;
80725;SDS011;70113;59.928;10.878;2024-01-30T10:04:22;8.48;;;1.48;;
80725;SDS011;70113;59.928;10.878;2024-01-30T10:06:48;9.93;;;1.60;;
80725;SDS011;70113;59.928;10.878;2024-01-30T10:09:13;8.50;;;1.70;;
80725;SDS011;70113;59.928;10.878;2024-01-30T10:11:39;6.28;;;1.52;;
80725;SDS011;70113;59.928;10.878;2024-01-30T10:14:05;6.07;;;1.90;;
80725;SDS011;70113;59.928;10.878;2024-01-30T10:16:31;8.68;;;2.13;;
80725;SDS011;70113;59.928;10.878;2024-01-30T10:18:56;5.75;;;1.90;;
80725;SDS011;70113;59.928;10.878;2024-01-30T10:21:22;6.32;;;2.17;;
80725;SDS011;70113;59.928;10.878;2024-01-30T10:23:49;8.38;;;2.10;;
80725;SDS011;70113;59.928;10.878;2024-01-30T10:26:18;9.60;;;2.22;;
80725;SDS011;70113;59.928;10.878;2024-01-30T10:28:44;8.07;;;1.98;;
80725;SDS011;70113;59.928;10.878;2024-01-30T10:31:09;6.35;;;2.45;;
80725;SDS011;70113;59.928;10.878;2024-01-30T10:33:35;9.63;;;2.15;;
80725;SDS011;70113;59.928;10.878;2024-01-30T10:36:02;6.60;;;2.00;;
80725;SDS011;70113;59.928;10.878;2024-01-30T10:38:28;8.38;;;2.30;;
80725;SDS011;70113;59.928;10.878;2024-01-30T10:40:56;8.63;;;2.67;;
80725;SDS011;70113;59.928;10.878;2024-01-30T10:43:22;7.57;;;2.38;;
80725;SDS011;70113;59.928;10.878;2024-01-30T10:45:49;6.53;;;2.45;;
80725;SDS011;70113;59.928;10.878;2024-01-30T10:48:15;5.32;;;2.10;;
80725;SDS011;70113;59.928;10.878;2024-01-30T10:50:43;6.85;;;2.38;;
80725;SDS011;70113;59.928;10.878;2024-01-30T10:53:08;8.20;;;2.42;;
80725;SDS011;70113;59.928;10.878;2024-01-30T10:55:35;9.13;;;2.47;;
80725;SDS011;70113;59.928;10.878;2024-01-30T10:58:02;11.82;;;2.45;;
80725;SDS011;70113;59.928;10.878;2024-01-30T11:00:28;5.65;;;2.30;;
80725;SDS011;70113;59.928;10.878;2024-01-30T11:02:53;8.43;;;2.15;;
80725;SDS011;70113;59.928;10.878;2024-01-30T11:05:26;8.00;;;2.40;;
80725;SDS011;70113;59.928;10.878;2024-01-30T11:07:52;7.18;;;2.13;;
80725;SDS011;70113;59.928;10.878;2024-01-30T11:10:19;7.63;;;1.98;;
80725;SDS011;70113;59.928;10.878;2024-01-30T11:12:45;6.93;;;2.38;;
80725;SDS011;70113;59.928;10.878;2024-01-30T11:15:12;7.60;;;2.17;;
80725;SDS011;70113;59.928;10.878;2024-01-30T11:17:39;5.32;;;1.88;;
80725;SDS011;70113;59.928;10.878;2024-01-30T11:20:09;7.65;;;2.40;;
80725;SDS011;70113;59.928;10.878;2024-01-30T11:22:35;6.88;;;2.30;;
80725;SDS011;70113;59.928;10.878;2024-01-30T11:25:01;7.55;;;2.78;;
80725;SDS011;70113;59.928;10.878;2024-01-30T11:27:29;7.15;;;2.85;;
80725;SDS011;70113;59.928;10.878;2024-01-30T11:30:00;5.90;;;2.25;;
80725;SDS011;70113;59.928;10.878;2024-01-30T11:32:26;6.35;;;2.40;;
80725;SDS011;70113;59.928;10.878;2024-01-30T11:34:52;6.97;;;2.50;;
80725;SDS011;70113;59.928;10.878;2024-01-30T11:37:17;9.00;;;2.58;;
80725;SDS011;70113;59.928;10.878;2024-01-30T11:39:45;7.35;;;2.72;;
80725;SDS011;70113;59.928;10.878;2024-01-30T11:42:11;10.13;;;2.95;;
80725;SDS011;70113;59.928;10.878;2024-01-30T11:44:37;10.93;;;2.97;;
80725;SDS011;70113;59.928;10.878;2024-01-30T11:47:02;8.27;;;2.75;;
80725;SDS011;70113;59.928;10.878;2024-01-30T11:49:29;8.48;;;2.45;;
80725;SDS011;70113;59.928;10.878;2024-01-30T11:51:57;7.57;;;2.90;;
80725;SDS011;70113;59.928;10.878;2024-01-30T11:54:23;9.18;;;3.17;;
80725;SDS011;70113;59.928;10.878;2024-01-30T11:56:48;7.13;;;2.67;;
80725;SDS011;70113;59.928;10.878;2024-01-30T11:59:14;6.60;;;2.22;;
80725;SDS011;70113;59.928;10.878;2024-01-30T12:01:39;11.10;;;2.72;;
80725;SDS011;70113;59.928;10.878;2024-01-30T12:04:05;8.93;;;2.35;;
80725;SDS011;70113;59.928;10.878;2024-01-30T12:06:34;7.10;;;2.28;;
80725;SDS011;70113;59.928;10.878;2024-01-30T12:09:03;9.10;;;2.30;;
80725;SDS011;70113;59.928;10.878;2024-01-30T12:11:45;7.57;;;2.38;;
80725;SDS011;70113;59.928;10.878;2024-01-30T12:14:11;7.15;;;2.10;;
80725;SDS011;70113;59.928;10.878;2024-01-30T12:16:37;8.95;;;2.35;;
80725;SDS011;70113;59.928;10.878;2024-01-30T12:19:02;6.50;;;2.17;;
80725;SDS011;70113;59.928;10.878;2024-01-30T12:21:28;6.78;;;1.90;;
80725;SDS011;70113;59.928;10.878;2024-01-30T12:23:54;9.27;;;2.50;;
80725;SDS011;70113;59.928;10.878;2024-01-30T12:26:20;6.13;;;2.13;;
80725;SDS011;70113;59.928;10.878;2024-01-30T12:28:50;8.13;;;2.22;;
80725;SDS011;70113;59.928;10.878;2024-01-30T12:31:16;6.47;;;2.15;;
80725;SDS011;70113;59.928;10.878;2024-01-30T12:33:41;8.55;;;2.08;;
80725;SDS011;70113;59.928;10.878;2024-01-30T12:36:07;6.03;;;2.20;;
80725;SDS011;70113;59.928;10.878;2024-01-30T12:38:33;8.73;;;2.42;;
80725;SDS011;70113;59.928;10.878;2024-01-30T12:40:58;6.55;;;2.53;;
80725;SDS011;70113;59.928;10.878;2024-01-30T12:43:25;9.32;;;2.85;;
80725;SDS011;70113;59.928;10.878;2024-01-30T12:45:52;6.47;;;2.80;;
80725;SDS011;70113;59.928;10.878;2024-01-30T12:48:18;7.60;;;2.38;;
80725;SDS011;70113;59.928;10.878;2024-01-30T12:50:43;5.95;;;1.92;;
80725;SDS011;70113;59.928;10.878;2024-01-30T12:53:09;6.75;;;2.10;;
80725;SDS011;70113;59.928;10.878;2024-01-30T12:55:35;7.45;;;2.08;;
80725;SDS011;70113;59.928;10.878;2024-01-30T12:58:00;6.70;;;2.20;;
80725;SDS011;70113;59.928;10.878;2024-01-30T13:00:26;8.23;;;2.45;;
80725;SDS011;70113;59.928;10.878;2024-01-30T13:02:52;6.40;;;2.22;;
80725;SDS011;70113;59.928;10.878;2024-01-30T13:05:18;6.78;;;1.67;;
80725;SDS011;70113;59.928;10.878;2024-01-30T13:07:44;7.32;;;2.42;;
80725;SDS011;70113;59.928;10.878;2024-01-30T13:10:09;9.05;;;2.20;;
80725;SDS011;70113;59.928;10.878;2024-01-30T13:12:35;6.85;;;2.40;;
80725;SDS011;70113;59.928;10.878;2024-01-30T13:15:01;7.43;;;2.60;;
80725;SDS011;70113;59.928;10.878;2024-01-30T13:17:27;7.22;;;2.20;;
80725;SDS011;70113;59.928;10.878;2024-01-30T13:19:53;7.78;;;2.08;;
80725;SDS011;70113;59.928;10.878;2024-01-30T13:22:20;5.75;;;2.03;;
80725;SDS011;70113;59.928;10.878;2024-01-30T13:24:48;6.93;;;2.20;;
80725;SDS011;70113;59.928;10.878;2024-01-30T13:27:13;7.55;;;2.30;;
80725;SDS011;70113;59.928;10.878;2024-01-30T13:29:39;7.20;;;2.58;;
80725;SDS011;70113;59.928;10.878;2024-01-30T13:32:05;8.10;;;2.30;;
80725;SDS011;70113;59.928;10.878;2024-01-30T13:34:31;11.15;;;2.47;;
80725;SDS011;70113;59.928;10.878;2024-01-30T13:36:56;7.18;;;2.20;;
80725;SDS011;70113;59.928;10.878;2024-01-30T13:39:22;6.75;;;2.42;;
80725;SDS011;70113;59.928;10.878;2024-01-30T13:41:48;5.97;;;2.53;;
80725;SDS011;70113;59.928;10.878;2024-01-30T13:44:15;7.43;;;2.88;;
80725;SDS011;70113;59.928;10.878;2024-01-30T13:46:42;7.22;;;2.00;;
80725;SDS011;70113;59.928;10.878;2024-01-30T13:49:07;5.38;;;1.77;;
80725;SDS011;70113;59.928;10.878;2024-01-30T13:51:33;5.07;;;1.80;;
80725;SDS011;70113;59.928;10.878;2024-01-30T13:53:59;6.40;;;2.20;;
80725;SDS011;70113;59.928;10.878;2024-01-30T13:56:25;4.70;;;1.92;;
80725;SDS011;70113;59.928;10.878;2024-01-30T13:58:52;5.97;;;2.03;;
80725;SDS011;70113;59.928;10.878;2024-01-30T14:01:17;4.45;;;1.75;;
80725;SDS011;70113;59.928;10.878;2024-01-30T14:03:43;6.07;;;2.00;;
80725;SDS011;70113;59.928;10.878;2024-01-30T14:06:09;6.13;;;2.05;;
80725;SDS011;70113;59.928;10.878;2024-01-30T14:08:34;8.95;;;2.13;;
80725;SDS011;70113;59.928;10.878;2024-01-30T14:11:00;6.32;;;2.45;;
80725;SDS011;70113;59.928;10.878;2024-01-30T14:13:26;4.93;;;1.83;;
80725;SDS011;70113;59.928;10.878;2024-01-30T14:15:51;6.28;;;2.13;;
80725;SDS011;70113;59.928;10.878;2024-01-30T14:18:17;5.78;;;2.20;;
80725;SDS011;70113;59.928;10.878;2024-01-30T14:20:43;6.20;;;2.20;;
80725;SDS011;70113;59.928;10.878;2024-01-30T14:23:09;6.72;;;2.35;;
80725;SDS011;70113;59.928;10.878;2024-01-30T14:25:34;4.50;;;2.10;;
80725;SDS011;70113;59.928;10.878;2024-01-30T14:28:00;8.20;;;2.67;;
80725;SDS011;70113;59.928;10.878;2024-01-30T14:30:26;5.68;;;1.92;;
80725;SDS011;70113;59.928;10.878;2024-01-30T14:32:51;7.05;;;2.35;;
80725;SDS011;70113;59.928;10.878;2024-01-30T14:35:18;4.50;;;1.40;;
80725;SDS011;70113;59.928;10.878;2024-01-30T14:37:44;8.23;;;2.00;;
80725;SDS011;70113;59.928;10.878;2024-01-30T14:40:10;7.47;;;2.05;;
80725;SDS011;70113;59.928;10.878;2024-01-30T14:42:36;5.78;;;1.80;;
80725;SDS011;70113;59.928;10.878;2024-01-30T14:45:03;7.20;;;1.90;;
80725;SDS011;70113;59.928;10.878;2024-01-30T14:47:28;5.53;;;1.98;;
80725;SDS011;70113;59.928;10.878;2024-01-30T14:49:54;8.93;;;2.15;;
80725;SDS011;70113;59.928;10.878;2024-01-30T14:52:20;6.50;;;1.92;;
80725;SDS011;70113;59.928;10.878;2024-01-30T14:54:45;6.45;;;1.98;;
80725;SDS011;70113;59.928;10.878;2024-01-30T14:57:11;4.88;;;1.70;;
80725;SDS011;70113;59.928;10.878;2024-01-30T14:59:37;6.18;;;2.40;;
80725;SDS011;70113;59.928;10.878;2024-01-30T15:02:02;9.07;;;2.10;;
80725;SDS011;70113;59.928;10.878;2024-01-30T15:04:28;7.53;;;2.35;;
80725;SDS011;70113;59.928;10.878;2024-01-30T15:06:54;6.72;;;2.00;;
80725;SDS011;70113;59.928;10.878;2024-01-30T15:09:19;8.38;;;1.80;;
80725;SDS011;70113;59.928;10.878;2024-01-30T15:11:48;5.32;;;1.90;;
80725;SDS011;70113;59.928;10.878;2024-01-30T15:14:14;5.22;;;2.40;;
80725;SDS011;70113;59.928;10.878;2024-01-30T15:16:40;6.38;;;2.47;;
80725;SDS011;70113;59.928;10.878;2024-01-30T15:19:05;6.13;;;2.10;;
80725;SDS011;70113;59.928;10.878;2024-01-30T15:21:31;8.07;;;2.35;;
80725;SDS011;70113;59.928;10.878;2024-01-30T15:23:57;6.78;;;2.17;;
80725;SDS011;70113;59.928;10.878;2024-01-30T15:26:23;7.60;;;2.00;;
80725;SDS011;70113;59.928;10.878;2024-01-30T15:28:48;7.03;;;2.13;;
80725;SDS011;70113;59.928;10.878;2024-01-30T15:31:14;7.13;;;2.08;;
80725;SDS011;70113;59.928;10.878;2024-01-30T15:33:40;4.07;;;2.03;;
80725;SDS011;70113;59.928;10.878;2024-01-30T15:36:06;6.55;;;2.25;;
80725;SDS011;70113;59.928;10.878;2024-01-30T15:38:31;6.72;;;2.33;;
80725;SDS011;70113;59.928;10.878;2024-01-30T15:40:57;10.38;;;2.38;;
80725;SDS011;70113;59.928;10.878;2024-01-30T15:43:23;9.38;;;2.30;;
80725;SDS011;70113;59.928;10.878;2024-01-30T15:45:49;10.40;;;2.83;;
80725;SDS011;70113;59.928;10.878;2024-01-30T15:48:16;6.40;;;2.40;;
80725;SDS011;70113;59.928;10.878;2024-01-30T15:50:42;6.82;;;2.97;;
80725;SDS011;70113;59.928;10.878;2024-01-30T15:53:07;8.82;;;2.42;;
80725;SDS011;70113;59.928;10.878;2024-01-30T15:55:33;10.95;;;2.92;;
80725;SDS011;70113;59.928;10.878;2024-01-30T15:57:59;7.55;;;3.45;;
80725;SDS011;70113;59.928;10.878;2024-01-30T16:00:25;10.40;;;3.25;;
80725;SDS011;70113;59.928;10.878;2024-01-30T16:02:52;8.43;;;2.80;;
80725;SDS011;70113;59.928;10.878;2024-01-30T16:05:18;8.02;;;2.90;;
80725;SDS011;70113;59.928;10.878;2024-01-30T16:07:43;10.18;;;2.60;;
80725;SDS011;70113;59.928;10.878;2024-01-30T16:10:09;5.43;;;2.15;;
80725;SDS011;70113;59.928;10.878;2024-01-30T16:12:37;9.38;;;2.80;;
80725;SDS011;70113;59.928;10.878;2024-01-30T16:15:03;6.93;;;2.30;;
80725;SDS011;70113;59.928;10.878;2024-01-30T16:17:29;5.18;;;2.33;;
80725;SDS011;70113;59.928;10.878;2024-01-30T16:19:56;8.13;;;2.92;;
80725;SDS011;70113;59.928;10.878;2024-01-30T16:22:21;9.50;;;2.80;;
80725;SDS011;70113;59.928;10.878;2024-01-30T16:24:47;7.70;;;2.83;;
80725;SDS011;70113;59.928;10.878;2024-01-30T16:27:13;8.82;;;2.88;;
80725;SDS011;70113;59.928;10.878;2024-01-30T16:29:39;7.20;;;3.08;;
80725;SDS011;70113;59.928;10.878;2024-01-30T16:32:04;7.22;;;2.60;;
80725;SDS011;70113;59.928;10.878;2024-01-30T16:34:30;6.32;;;2.67;;
80725;SDS011;70113;59.928;10.878;2024-01-30T16:36:56;4.90;;;2.28;;
80725;SDS011;70113;59.928;10.878;2024-01-30T16:39:21;5.20;;;2.20;;
80725;SDS011;70113;59.928;10.878;2024-01-30T16:41:47;7.35;;;2.50;;
80725;SDS011;70113;59.928;10.878;2024-01-30T16:44:13;9.70;;;2.33;;
80725;SDS011;70113;59.928;10.878;2024-01-30T16:46:39;7.18;;;2.47;;
80725;SDS011;70113;59.928;10.878;2024-01-30T16:49:05;5.60;;;1.98;;
80725;SDS011;70113;59.928;10.878;2024-01-30T16:51:30;9.38;;;3.22;;
80725;SDS011;70113;59.928;10.878;2024-01-30T16:53:56;8.07;;;2.83;;
80725;SDS011;70113;59.928;10.878;2024-01-30T16:56:22;6.90;;;2.80;;
80725;SDS011;70113;59.928;10.878;2024-01-30T16:58:47;7.18;;;2.40;;
80725;SDS011;70113;59.928;10.878;2024-01-30T17:01:13;11.45;;;3.47;;
80725;SDS011;70113;59.928;10.878;2024-01-30T17:03:39;6.32;;;2.30;;
80725;SDS011;70113;59.928;10.878;2024-01-30T17:06:10;7.00;;;2.60;;
80725;SDS011;70113;59.928;10.878;2024-01-30T17:08:37;7.00;;;2.70;;
80725;SDS011;70113;59.928;10.878;2024-01-30T17:11:02;7.95;;;2.97;;
80725;SDS011;70113;59.928;10.878;2024-01-30T17:13:28;6.45;;;2.92;;
80725;SDS011;70113;59.928;10.878;2024-01-30T17:15:54;7.78;;;2.50;;
80725;SDS011;70113;59.928;10.878;2024-01-30T17:18:20;8.20;;;3.25;;
80725;SDS011;70113;59.928;10.878;2024-01-30T17:20:45;9.25;;;2.83;;
80725;SDS011;70113;59.928;10.878;2024-01-30T17:23:11;7.07;;;3.20;;
80725;SDS011;70113;59.928;10.878;2024-01-30T17:25:38;12.25;;;3.65;;
80725;SDS011;70113;59.928;10.878;2024-01-30T17:46:38;6.85;;;2.70;;
80725;SDS011;70113;59.928;10.878;2024-01-30T17:49:04;10.65;;;3.20;;
80725;SDS011;70113;59.928;10.878;2024-01-30T17:51:31;6.47;;;2.28;;
80725;SDS011;70113;59.928;10.878;2024-01-30T17:53:57;8.70;;;2.22;;
80725;SDS011;70113;59.928;10.878;2024-01-30T17:56:23;8.63;;;2.35;;
80725;SDS011;70113;59.928;10.878;2024-01-30T17:58:48;7.65;;;3.10;;
80725;SDS011;70113;59.928;10.878;2024-01-30T18:01:14;8.18;;;2.80;;
80725;SDS011;70113;59.928;10.878;2024-01-30T18:03:40;9.25;;;3.63;;
80725;SDS011;70113;59.928;10.878;2024-01-30T18:06:06;8.25;;;2.88;;
80725;SDS011;70113;59.928;10.878;2024-01-30T18:08:32;8.35;;;3.25;;
80725;SDS011;70113;59.928;10.878;2024-01-30T18:10:58;6.47;;;2.85;;
80725;SDS011;70113;59.928;10.878;2024-01-30T18:13:23;7.95;;;3.50;;
80725;SDS011;70113;59.928;10.878;2024-01-30T18:15:49;9.48;;;3.03;;
80725;SDS011;70113;59.928;10.878;2024-01-30T18:18:15;12.57;;;3.03;;
80725;SDS011;70113;59.928;10.878;2024-01-30T18:20:41;6.30;;;2.88;;
80725;SDS011;70113;59.928;10.878;2024-01-30T18:23:07;8.07;;;3.33;;
80725;SDS011;70113;59.928;10.878;2024-01-30T18:25:33;8.82;;;3.28;;
80725;SDS011;70113;59.928;10.878;2024-01-30T18:27:58;6.45;;;2.97;;
80725;SDS011;70113;59.928;10.878;2024-01-30T18:30:26;7.70;;;2.90;;
80725;SDS011;70113;59.928;10.878;2024-01-30T18:32:52;11.63;;;3.30;;
80725;SDS011;70113;59.928;10.878;2024-01-30T18:35:18;7.30;;;2.72;;
80725;SDS011;70113;59.928;10.878;2024-01-30T18:37:44;8.68;;;3.17;;
80725;SDS011;70113;59.928;10.878;2024-01-30T18:40:09;5.80;;;2.75;;
80725;SDS011;70113;59.928;10.878;2024-01-30T18:42:35;10.82;;;3.05;;
80725;SDS011;70113;59.928;10.878;2024-01-30T18:45:01;6.82;;;3.20;;
80725;SDS011;70113;59.928;10.878;2024-01-30T18:47:27;7.78;;;2.78;;
80725;SDS011;70113;59.928;10.878;2024-01-30T18:49:53;9.50;;;3.53;;